sensor_id;sensor_type;location;lat;lon;timestamp;temperature;humidity
3069;DHT22;1545;51.728;8.796;2023-07-09T00:00:59;19.30;78.90
3069;DHT22;1545;51.728;8.796;2023-07-09T00:03:24;19.50;78.60
3069;DHT22;1545;51.728;8.796;2023-07-09T00:05:50;19.60;78.30
3069;DHT22;1545;51.728;8.796;2023-07-09T00:08:28;19.70;78.00
3069;DHT22;1545;51.728;8.796;2023-07-09T00:10:55;19.70;78.50
3069;DHT22;1545;51.728;8.796;2023-07-09T00:13:21;19.60;78.50
3069;DHT22;1545;51.728;8.796;2023-07-09T00:15:48;19.60;78.20
3069;DHT22;1545;51.728;8.796;2023-07-09T00:18:14;19.60;78.70
3069;DHT22;1545;51.728;8.796;2023-07-09T00:20:40;19.40;78.90
3069;DHT22;1545;51.728;8.796;2023-07-09T00:23:11;19.20;79.40
3069;DHT22;1545;51.728;8.796;2023-07-09T00:25:44;19.00;79.90
3069;DHT22;1545;51.728;8.796;2023-07-09T00:28:14;18.80;80.60
3069;DHT22;1545;51.728;8.796;2023-07-09T00:30:40;18.70;80.70
3069;DHT22;1545;51.728;8.796;2023-07-09T00:33:13;18.70;80.70
3069;DHT22;1545;51.728;8.796;2023-07-09T00:35:44;18.70;80.70
3069;DHT22;1545;51.728;8.796;2023-07-09T00:38:17;18.80;80.60
3069;DHT22;1545;51.728;8.796;2023-07-09T00:41:05;18.90;80.00
3069;DHT22;1545;51.728;8.796;2023-07-09T00:43:34;19.00;79.30
3069;DHT22;1545;51.728;8.796;2023-07-09T00:48:47;19.30;78.30
3069;DHT22;1545;51.728;8.796;2023-07-09T00:51:15;19.40;78.30
3069;DHT22;1545;51.728;8.796;2023-07-09T00:53:43;19.40;78.40
3069;DHT22;1545;51.728;8.796;2023-07-09T00:56:36;19.40;78.60
3069;DHT22;1545;51.728;8.796;2023-07-09T00:59:06;19.40;78.60
3069;DHT22;1545;51.728;8.796;2023-07-09T01:01:33;19.40;78.90
3069;DHT22;1545;51.728;8.796;2023-07-09T01:04:00;19.40;78.80
3069;DHT22;1545;51.728;8.796;2023-07-09T01:06:41;19.50;78.70
3069;DHT22;1545;51.728;8.796;2023-07-09T01:09:08;19.40;78.90
3069;DHT22;1545;51.728;8.796;2023-07-09T01:11:34;19.40;79.00
3069;DHT22;1545;51.728;8.796;2023-07-09T01:14:04;19.40;79.20
3069;DHT22;1545;51.728;8.796;2023-07-09T01:16:35;19.40;80.10
3069;DHT22;1545;51.728;8.796;2023-07-09T01:19:03;19.30;79.90
3069;DHT22;1545;51.728;8.796;2023-07-09T01:21:30;19.20;80.00
3069;DHT22;1545;51.728;8.796;2023-07-09T01:23:56;19.10;79.80
3069;DHT22;1545;51.728;8.796;2023-07-09T01:26:25;19.00;79.90
3069;DHT22;1545;51.728;8.796;2023-07-09T01:28:55;19.00;79.90
3069;DHT22;1545;51.728;8.796;2023-07-09T01:31:21;18.90;80.10
3069;DHT22;1545;51.728;8.796;2023-07-09T01:33:47;18.90;79.90
3069;DHT22;1545;51.728;8.796;2023-07-09T01:36:16;18.90;80.00
3069;DHT22;1545;51.728;8.796;2023-07-09T01:38:43;18.90;80.20
3069;DHT22;1545;51.728;8.796;2023-07-09T01:41:09;18.90;80.10
3069;DHT22;1545;51.728;8.796;2023-07-09T01:43:38;18.90;79.70
3069;DHT22;1545;51.728;8.796;2023-07-09T01:46:04;19.20;78.40
3069;DHT22;1545;51.728;8.796;2023-07-09T01:48:31;19.50;77.70
3069;DHT22;1545;51.728;8.796;2023-07-09T01:50:58;20.00;75.50
3069;DHT22;1545;51.728;8.796;2023-07-09T01:53:26;20.70;73.00
3069;DHT22;1545;51.728;8.796;2023-07-09T01:55:52;21.40;70.80
3069;DHT22;1545;51.728;8.796;2023-07-09T01:58:19;21.90;69.30
3069;DHT22;1545;51.728;8.796;2023-07-09T02:00:50;22.20;68.50
3069;DHT22;1545;51.728;8.796;2023-07-09T02:03:15;22.30;68.00
3069;DHT22;1545;51.728;8.796;2023-07-09T02:05:43;22.40;67.40
3069;DHT22;1545;51.728;8.796;2023-07-09T02:08:08;22.50;66.90
3069;DHT22;1545;51.728;8.796;2023-07-09T02:10:34;22.60;66.50
3069;DHT22;1545;51.728;8.796;2023-07-09T02:12:59;22.70;66.20
3069;DHT22;1545;51.728;8.796;2023-07-09T02:15:25;22.70;66.10
3069;DHT22;1545;51.728;8.796;2023-07-09T02:17:51;22.70;65.80
3069;DHT22;1545;51.728;8.796;2023-07-09T02:20:18;22.70;66.00
3069;DHT22;1545;51.728;8.796;2023-07-09T02:22:45;22.70;66.30
3069;DHT22;1545;51.728;8.796;2023-07-09T02:25:10;22.60;66.30
3069;DHT22;1545;51.728;8.796;2023-07-09T02:27:36;22.60;66.40
3069;DHT22;1545;51.728;8.796;2023-07-09T02:30:02;22.50;66.60
3069;DHT22;1545;51.728;8.796;2023-07-09T02:32:28;22.40;67.10
3069;DHT22;1545;51.728;8.796;2023-07-09T02:34:54;22.30;67.80
3069;DHT22;1545;51.728;8.796;2023-07-09T02:37:23;22.20;70.10
3069;DHT22;1545;51.728;8.796;2023-07-09T02:39:48;21.90;72.60
3069;DHT22;1545;51.728;8.796;2023-07-09T02:42:16;21.40;74.20
3069;DHT22;1545;51.728;8.796;2023-07-09T02:44:42;21.10;74.90
3069;DHT22;1545;51.728;8.796;2023-07-09T02:47:08;20.80;75.80
3069;DHT22;1545;51.728;8.796;2023-07-09T02:49:34;20.50;76.70
3069;DHT22;1545;51.728;8.796;2023-07-09T02:52:00;20.30;77.30
3069;DHT22;1545;51.728;8.796;2023-07-09T02:54:26;20.10;77.50
3069;DHT22;1545;51.728;8.796;2023-07-09T02:56:51;20.00;78.10
3069;DHT22;1545;51.728;8.796;2023-07-09T02:59:17;19.90;78.20
3069;DHT22;1545;51.728;8.796;2023-07-09T03:01:43;19.70;78.60
3069;DHT22;1545;51.728;8.796;2023-07-09T03:04:09;19.60;78.90
3069;DHT22;1545;51.728;8.796;2023-07-09T03:06:35;19.30;79.70
3069;DHT22;1545;51.728;8.796;2023-07-09T03:09:02;19.10;80.00
3069;DHT22;1545;51.728;8.796;2023-07-09T03:11:29;18.90;80.50
3069;DHT22;1545;51.728;8.796;2023-07-09T03:13:56;18.90;80.70
3069;DHT22;1545;51.728;8.796;2023-07-09T03:16:22;18.70;80.40
3069;DHT22;1545;51.728;8.796;2023-07-09T03:18:47;18.70;80.30
3069;DHT22;1545;51.728;8.796;2023-07-09T03:21:13;18.80;80.50
3069;DHT22;1545;51.728;8.796;2023-07-09T03:23:38;18.80;80.00
3069;DHT22;1545;51.728;8.796;2023-07-09T03:26:04;18.80;79.90
3069;DHT22;1545;51.728;8.796;2023-07-09T03:28:31;18.80;79.80
3069;DHT22;1545;51.728;8.796;2023-07-09T03:30:57;18.90;79.40
3069;DHT22;1545;51.728;8.796;2023-07-09T03:33:23;19.00;79.60
3069;DHT22;1545;51.728;8.796;2023-07-09T03:35:50;19.10;79.60
3069;DHT22;1545;51.728;8.796;2023-07-09T03:38:15;19.10;79.70
3069;DHT22;1545;51.728;8.796;2023-07-09T03:40:41;19.20;79.70
3069;DHT22;1545;51.728;8.796;2023-07-09T03:43:08;19.20;79.50
3069;DHT22;1545;51.728;8.796;2023-07-09T03:45:35;19.30;79.60
3069;DHT22;1545;51.728;8.796;2023-07-09T03:48:01;19.40;79.30
3069;DHT22;1545;51.728;8.796;2023-07-09T03:50:26;19.40;79.30
3069;DHT22;1545;51.728;8.796;2023-07-09T03:52:52;19.40;79.20
3069;DHT22;1545;51.728;8.796;2023-07-09T03:55:18;19.50;79.00
3069;DHT22;1545;51.728;8.796;2023-07-09T03:57:43;19.60;78.80
3069;DHT22;1545;51.728;8.796;2023-07-09T04:00:09;19.60;78.90
3069;DHT22;1545;51.728;8.796;2023-07-09T04:02:36;19.70;78.90
3069;DHT22;1545;51.728;8.796;2023-07-09T04:05:01;19.80;78.80
3069;DHT22;1545;51.728;8.796;2023-07-09T04:07:28;20.00;78.50
3069;DHT22;1545;51.728;8.796;2023-07-09T04:09:54;20.10;78.10
3069;DHT22;1545;51.728;8.796;2023-07-09T04:12:19;20.30;77.90
3069;DHT22;1545;51.728;8.796;2023-07-09T04:14:44;20.50;77.80
3069;DHT22;1545;51.728;8.796;2023-07-09T04:17:10;20.80;77.70
3069;DHT22;1545;51.728;8.796;2023-07-09T04:19:36;21.10;78.00
3069;DHT22;1545;51.728;8.796;2023-07-09T04:22:01;21.40;76.80
3069;DHT22;1545;51.728;8.796;2023-07-09T04:24:27;22.30;75.60
3069;DHT22;1545;51.728;8.796;2023-07-09T04:26:53;22.90;72.30
3069;DHT22;1545;51.728;8.796;2023-07-09T04:29:23;22.90;72.50
3069;DHT22;1545;51.728;8.796;2023-07-09T04:31:48;23.10;72.50
3069;DHT22;1545;51.728;8.796;2023-07-09T04:34:14;23.50;71.30
3069;DHT22;1545;51.728;8.796;2023-07-09T04:36:40;23.60;71.50
3069;DHT22;1545;51.728;8.796;2023-07-09T04:39:06;24.20;70.50
3069;DHT22;1545;51.728;8.796;2023-07-09T04:41:32;24.90;67.50
3069;DHT22;1545;51.728;8.796;2023-07-09T04:43:57;25.60;66.60
3069;DHT22;1545;51.728;8.796;2023-07-09T04:46:23;26.50;63.40
3069;DHT22;1545;51.728;8.796;2023-07-09T04:48:48;27.50;60.00
3069;DHT22;1545;51.728;8.796;2023-07-09T04:51:14;28.50;56.90
3069;DHT22;1545;51.728;8.796;2023-07-09T04:53:39;29.20;55.90
3069;DHT22;1545;51.728;8.796;2023-07-09T04:56:06;29.60;55.30
3069;DHT22;1545;51.728;8.796;2023-07-09T04:58:31;29.80;56.50
3069;DHT22;1545;51.728;8.796;2023-07-09T05:00:57;29.90;54.80
3069;DHT22;1545;51.728;8.796;2023-07-09T05:03:23;29.90;54.50
3069;DHT22;1545;51.728;8.796;2023-07-09T05:05:49;30.10;54.20
3069;DHT22;1545;51.728;8.796;2023-07-09T05:08:15;30.30;53.00
3069;DHT22;1545;51.728;8.796;2023-07-09T05:10:43;30.40;53.50
3069;DHT22;1545;51.728;8.796;2023-07-09T05:13:08;30.50;52.40
3069;DHT22;1545;51.728;8.796;2023-07-09T05:15:34;30.50;52.60
3069;DHT22;1545;51.728;8.796;2023-07-09T05:17:59;30.90;52.70
3069;DHT22;1545;51.728;8.796;2023-07-09T05:20:25;31.10;52.50
3069;DHT22;1545;51.728;8.796;2023-07-09T05:22:51;31.10;51.90
3069;DHT22;1545;51.728;8.796;2023-07-09T05:25:17;31.00;53.00
3069;DHT22;1545;51.728;8.796;2023-07-09T05:27:42;31.10;53.10
3069;DHT22;1545;51.728;8.796;2023-07-09T05:30:08;31.50;52.60
3069;DHT22;1545;51.728;8.796;2023-07-09T05:32:34;31.90;52.00
3069;DHT22;1545;51.728;8.796;2023-07-09T05:35:00;32.20;50.70
3069;DHT22;1545;51.728;8.796;2023-07-09T05:37:26;32.50;49.30
3069;DHT22;1545;51.728;8.796;2023-07-09T05:39:51;32.80;48.20
3069;DHT22;1545;51.728;8.796;2023-07-09T05:42:17;32.40;47.90
3069;DHT22;1545;51.728;8.796;2023-07-09T05:44:43;32.60;48.70
3069;DHT22;1545;51.728;8.796;2023-07-09T05:47:08;32.80;49.10
3069;DHT22;1545;51.728;8.796;2023-07-09T05:49:34;33.00;48.90
3069;DHT22;1545;51.728;8.796;2023-07-09T05:51:59;33.40;48.40
3069;DHT22;1545;51.728;8.796;2023-07-09T05:54:25;33.90;48.10
3069;DHT22;1545;51.728;8.796;2023-07-09T05:56:51;34.30;47.90
3069;DHT22;1545;51.728;8.796;2023-07-09T05:59:16;34.60;47.20
3069;DHT22;1545;51.728;8.796;2023-07-09T06:01:42;34.80;46.80
3069;DHT22;1545;51.728;8.796;2023-07-09T06:04:07;35.20;46.10
3069;DHT22;1545;51.728;8.796;2023-07-09T06:06:33;35.60;46.00
3069;DHT22;1545;51.728;8.796;2023-07-09T06:08:58;35.80;45.10
3069;DHT22;1545;51.728;8.796;2023-07-09T06:11:24;35.90;44.30
3069;DHT22;1545;51.728;8.796;2023-07-09T06:13:49;36.00;44.40
3069;DHT22;1545;51.728;8.796;2023-07-09T06:16:15;36.20;44.70
3069;DHT22;1545;51.728;8.796;2023-07-09T06:18:41;36.60;43.60
3069;DHT22;1545;51.728;8.796;2023-07-09T06:21:07;36.70;43.80
3069;DHT22;1545;51.728;8.796;2023-07-09T06:23:34;36.80;43.70
3069;DHT22;1545;51.728;8.796;2023-07-09T06:26:00;36.20;43.50
3069;DHT22;1545;51.728;8.796;2023-07-09T06:28:27;36.40;43.60
3069;DHT22;1545;51.728;8.796;2023-07-09T06:30:54;36.70;42.90
3069;DHT22;1545;51.728;8.796;2023-07-09T06:33:20;36.80;43.30
3069;DHT22;1545;51.728;8.796;2023-07-09T06:35:57;36.50;43.70
3069;DHT22;1545;51.728;8.796;2023-07-09T06:38:23;36.80;43.40
3069;DHT22;1545;51.728;8.796;2023-07-09T06:40:50;36.30;44.30
3069;DHT22;1545;51.728;8.796;2023-07-09T06:43:16;36.60;44.10
3069;DHT22;1545;51.728;8.796;2023-07-09T06:45:55;37.10;43.30
3069;DHT22;1545;51.728;8.796;2023-07-09T06:48:23;37.60;43.10
3069;DHT22;1545;51.728;8.796;2023-07-09T06:50:49;37.90;42.60
3069;DHT22;1545;51.728;8.796;2023-07-09T06:53:15;38.30;42.20
3069;DHT22;1545;51.728;8.796;2023-07-09T06:55:41;38.40;42.30
3069;DHT22;1545;51.728;8.796;2023-07-09T06:58:07;38.80;42.20
3069;DHT22;1545;51.728;8.796;2023-07-09T07:00:35;39.00;41.90
3069;DHT22;1545;51.728;8.796;2023-07-09T07:03:00;39.30;41.70
3069;DHT22;1545;51.728;8.796;2023-07-09T07:05:26;39.40;41.60
3069;DHT22;1545;51.728;8.796;2023-07-09T07:07:52;39.90;40.90
3069;DHT22;1545;51.728;8.796;2023-07-09T07:10:18;40.20;40.60
3069;DHT22;1545;51.728;8.796;2023-07-09T07:12:45;40.30;40.40
3069;DHT22;1545;51.728;8.796;2023-07-09T07:15:14;40.00;41.00
3069;DHT22;1545;51.728;8.796;2023-07-09T07:17:40;39.70;41.30
3069;DHT22;1545;51.728;8.796;2023-07-09T07:20:07;39.60;41.90
3069;DHT22;1545;51.728;8.796;2023-07-09T07:22:33;40.20;41.40
3069;DHT22;1545;51.728;8.796;2023-07-09T07:24:58;40.40;41.60
3069;DHT22;1545;51.728;8.796;2023-07-09T07:27:24;40.60;41.30
3069;DHT22;1545;51.728;8.796;2023-07-09T07:29:49;40.70;41.30
3069;DHT22;1545;51.728;8.796;2023-07-09T07:32:15;41.00;40.70
3069;DHT22;1545;51.728;8.796;2023-07-09T07:34:40;41.20;40.30
3069;DHT22;1545;51.728;8.796;2023-07-09T07:37:06;41.60;39.60
3069;DHT22;1545;51.728;8.796;2023-07-09T07:39:31;42.00;39.20
3069;DHT22;1545;51.728;8.796;2023-07-09T07:41:57;42.00;38.60
3069;DHT22;1545;51.728;8.796;2023-07-09T07:44:23;42.10;38.60
3069;DHT22;1545;51.728;8.796;2023-07-09T07:46:49;42.30;38.00
3069;DHT22;1545;51.728;8.796;2023-07-09T07:49:14;42.50;38.00
3069;DHT22;1545;51.728;8.796;2023-07-09T07:51:40;42.50;38.20
3069;DHT22;1545;51.728;8.796;2023-07-09T07:54:06;42.20;38.30
3069;DHT22;1545;51.728;8.796;2023-07-09T07:56:36;42.30;37.90
3069;DHT22;1545;51.728;8.796;2023-07-09T07:59:02;42.10;36.90
3069;DHT22;1545;51.728;8.796;2023-07-09T08:01:27;42.00;37.10
3069;DHT22;1545;51.728;8.796;2023-07-09T08:03:53;42.30;36.60
3069;DHT22;1545;51.728;8.796;2023-07-09T08:06:18;42.10;37.00
3069;DHT22;1545;51.728;8.796;2023-07-09T08:08:44;41.90;37.50
3069;DHT22;1545;51.728;8.796;2023-07-09T08:11:09;41.00;38.50
3069;DHT22;1545;51.728;8.796;2023-07-09T08:13:35;40.70;38.90
3069;DHT22;1545;51.728;8.796;2023-07-09T08:16:01;40.80;38.90
3069;DHT22;1545;51.728;8.796;2023-07-09T08:18:27;40.70;38.70
3069;DHT22;1545;51.728;8.796;2023-07-09T08:20:53;40.40;38.90
3069;DHT22;1545;51.728;8.796;2023-07-09T08:23:18;40.30;39.10
3069;DHT22;1545;51.728;8.796;2023-07-09T08:25:44;40.40;39.10
3069;DHT22;1545;51.728;8.796;2023-07-09T08:28:17;40.60;39.10
3069;DHT22;1545;51.728;8.796;2023-07-09T08:30:42;40.70;39.30
3069;DHT22;1545;51.728;8.796;2023-07-09T08:33:08;40.50;39.30
3069;DHT22;1545;51.728;8.796;2023-07-09T08:35:33;39.80;39.90
3069;DHT22;1545;51.728;8.796;2023-07-09T08:37:58;39.70;40.30
3069;DHT22;1545;51.728;8.796;2023-07-09T08:40:24;39.80;40.30
3069;DHT22;1545;51.728;8.796;2023-07-09T08:42:53;40.10;40.50
3069;DHT22;1545;51.728;8.796;2023-07-09T08:45:43;40.60;39.80
3069;DHT22;1545;51.728;8.796;2023-07-09T08:48:18;40.70;39.40
3069;DHT22;1545;51.728;8.796;2023-07-09T08:50:48;40.80;38.30
3069;DHT22;1545;51.728;8.796;2023-07-09T08:53:33;40.50;38.40
3069;DHT22;1545;51.728;8.796;2023-07-09T08:55:59;40.20;39.90
3069;DHT22;1545;51.728;8.796;2023-07-09T08:58:29;40.30;39.90
3069;DHT22;1545;51.728;8.796;2023-07-09T09:00:57;40.50;39.60
3069;DHT22;1545;51.728;8.796;2023-07-09T09:03:45;40.10;40.10
3069;DHT22;1545;51.728;8.796;2023-07-09T09:06:13;39.70;40.30
3069;DHT22;1545;51.728;8.796;2023-07-09T09:08:58;39.70;41.00
3069;DHT22;1545;51.728;8.796;2023-07-09T09:11:45;40.10;40.20
3069;DHT22;1545;51.728;8.796;2023-07-09T09:14:27;40.40;39.80
3069;DHT22;1545;51.728;8.796;2023-07-09T09:16:56;40.80;39.30
3069;DHT22;1545;51.728;8.796;2023-07-09T09:19:33;40.50;39.10
3069;DHT22;1545;51.728;8.796;2023-07-09T09:22:05;40.50;39.70
3069;DHT22;1545;51.728;8.796;2023-07-09T09:24:46;41.00;39.30
3069;DHT22;1545;51.728;8.796;2023-07-09T09:27:13;41.60;38.50
3069;DHT22;1545;51.728;8.796;2023-07-09T09:29:38;42.10;37.70
3069;DHT22;1545;51.728;8.796;2023-07-09T09:34:42;42.20;38.00
3069;DHT22;1545;51.728;8.796;2023-07-09T09:37:11;41.80;38.30
3069;DHT22;1545;51.728;8.796;2023-07-09T09:39:39;41.60;38.90
3069;DHT22;1545;51.728;8.796;2023-07-09T09:42:11;42.00;38.70
3069;DHT22;1545;51.728;8.796;2023-07-09T09:44:43;42.50;37.70
3069;DHT22;1545;51.728;8.796;2023-07-09T09:47:11;42.50;37.50
3069;DHT22;1545;51.728;8.796;2023-07-09T09:49:43;42.30;37.20
3069;DHT22;1545;51.728;8.796;2023-07-09T09:52:17;42.50;37.30
3069;DHT22;1545;51.728;8.796;2023-07-09T09:54:52;42.60;37.00
3069;DHT22;1545;51.728;8.796;2023-07-09T09:57:23;41.80;37.50
3069;DHT22;1545;51.728;8.796;2023-07-09T09:59:50;41.60;38.00
3069;DHT22;1545;51.728;8.796;2023-07-09T10:02:23;41.70;38.40
3069;DHT22;1545;51.728;8.796;2023-07-09T10:04:51;41.90;38.40
3069;DHT22;1545;51.728;8.796;2023-07-09T10:07:30;41.80;38.00
3069;DHT22;1545;51.728;8.796;2023-07-09T10:09:57;41.80;38.30
3069;DHT22;1545;51.728;8.796;2023-07-09T10:12:37;42.00;38.30
3069;DHT22;1545;51.728;8.796;2023-07-09T10:21:11;39.10;40.00
3069;DHT22;1545;51.728;8.796;2023-07-09T10:26:56;37.60;42.00
3069;DHT22;1545;51.728;8.796;2023-07-09T10:34:39;36.50;44.30
3069;DHT22;1545;51.728;8.796;2023-07-09T10:40:11;35.90;45.10
3069;DHT22;1545;51.728;8.796;2023-07-09T10:42:45;35.80;44.50
3069;DHT22;1545;51.728;8.796;2023-07-09T10:45:13;35.60;43.80
3069;DHT22;1545;51.728;8.796;2023-07-09T10:47:44;35.50;44.50
3069;DHT22;1545;51.728;8.796;2023-07-09T10:50:17;35.50;45.10
3069;DHT22;1545;51.728;8.796;2023-07-09T10:52:46;35.50;44.70
3069;DHT22;1545;51.728;8.796;2023-07-09T10:56:11;35.30;45.50
3069;DHT22;1545;51.728;8.796;2023-07-09T10:58:35;35.50;45.30
3069;DHT22;1545;51.728;8.796;2023-07-09T11:01:03;35.60;46.00
3069;DHT22;1545;51.728;8.796;2023-07-09T11:06:01;36.10;45.10
3069;DHT22;1545;51.728;8.796;2023-07-09T11:08:38;36.10;44.80
3069;DHT22;1545;51.728;8.796;2023-07-09T11:14:09;36.20;44.40
3069;DHT22;1545;51.728;8.796;2023-07-09T11:16:39;36.00;43.60
3069;DHT22;1545;51.728;8.796;2023-07-09T11:19:06;35.70;43.50
3069;DHT22;1545;51.728;8.796;2023-07-09T11:21:44;35.20;43.80
3069;DHT22;1545;51.728;8.796;2023-07-09T11:27:26;35.00;44.50
3069;DHT22;1545;51.728;8.796;2023-07-09T11:30:16;34.90;44.70
3069;DHT22;1545;51.728;8.796;2023-07-09T11:32:47;35.00;44.50
3069;DHT22;1545;51.728;8.796;2023-07-09T11:35:21;35.00;44.40
3069;DHT22;1545;51.728;8.796;2023-07-09T11:37:47;34.80;44.90
3069;DHT22;1545;51.728;8.796;2023-07-09T11:40:13;35.00;45.10
3069;DHT22;1545;51.728;8.796;2023-07-09T11:42:49;35.20;44.70
3069;DHT22;1545;51.728;8.796;2023-07-09T11:45:17;34.90;45.30
3069;DHT22;1545;51.728;8.796;2023-07-09T11:48:23;34.90;45.90
3069;DHT22;1545;51.728;8.796;2023-07-09T11:50:51;35.00;45.60
3069;DHT22;1545;51.728;8.796;2023-07-09T11:55:54;35.70;44.80
3069;DHT22;1545;51.728;8.796;2023-07-09T11:58:19;36.00;44.10
3069;DHT22;1545;51.728;8.796;2023-07-09T12:00:48;36.00;44.90
3069;DHT22;1545;51.728;8.796;2023-07-09T12:03:23;36.10;44.60
3069;DHT22;1545;51.728;8.796;2023-07-09T12:06:01;35.90;44.60
3069;DHT22;1545;51.728;8.796;2023-07-09T12:08:40;35.70;46.00
3069;DHT22;1545;51.728;8.796;2023-07-09T12:11:16;35.80;45.20
3069;DHT22;1545;51.728;8.796;2023-07-09T12:13:43;35.90;45.60
3069;DHT22;1545;51.728;8.796;2023-07-09T12:16:24;36.10;44.40
3069;DHT22;1545;51.728;8.796;2023-07-09T12:18:51;36.30;44.00
3069;DHT22;1545;51.728;8.796;2023-07-09T12:21:16;36.50;43.90
3069;DHT22;1545;51.728;8.796;2023-07-09T12:23:42;36.60;43.70
3069;DHT22;1545;51.728;8.796;2023-07-09T12:26:16;36.70;43.70
3069;DHT22;1545;51.728;8.796;2023-07-09T12:28:42;36.80;43.20
3069;DHT22;1545;51.728;8.796;2023-07-09T12:31:14;37.00;43.70
3069;DHT22;1545;51.728;8.796;2023-07-09T12:33:47;37.00;42.70
3069;DHT22;1545;51.728;8.796;2023-07-09T12:36:14;36.50;42.70
3069;DHT22;1545;51.728;8.796;2023-07-09T12:38:43;36.50;43.60
3069;DHT22;1545;51.728;8.796;2023-07-09T12:41:22;36.50;43.10
3069;DHT22;1545;51.728;8.796;2023-07-09T12:43:49;36.50;43.70
3069;DHT22;1545;51.728;8.796;2023-07-09T12:46:16;36.30;42.90
3069;DHT22;1545;51.728;8.796;2023-07-09T12:48:41;36.10;43.40
3069;DHT22;1545;51.728;8.796;2023-07-09T12:51:09;35.80;43.90
3069;DHT22;1545;51.728;8.796;2023-07-09T12:53:36;36.20;43.50
3069;DHT22;1545;51.728;8.796;2023-07-09T12:56:03;36.40;42.80
3069;DHT22;1545;51.728;8.796;2023-07-09T12:58:37;36.40;43.70
3069;DHT22;1545;51.728;8.796;2023-07-09T13:01:11;36.70;43.40
3069;DHT22;1545;51.728;8.796;2023-07-09T13:03:38;36.80;43.00
3069;DHT22;1545;51.728;8.796;2023-07-09T13:06:06;37.00;43.20
3069;DHT22;1545;51.728;8.796;2023-07-09T13:08:41;37.00;42.60
3069;DHT22;1545;51.728;8.796;2023-07-09T13:11:17;36.90;42.70
3069;DHT22;1545;51.728;8.796;2023-07-09T13:13:58;36.90;43.20
3069;DHT22;1545;51.728;8.796;2023-07-09T13:16:25;37.10;42.90
3069;DHT22;1545;51.728;8.796;2023-07-09T13:18:50;36.90;42.50
3069;DHT22;1545;51.728;8.796;2023-07-09T13:21:18;35.80;43.70
3069;DHT22;1545;51.728;8.796;2023-07-09T13:23:43;35.70;43.70
3069;DHT22;1545;51.728;8.796;2023-07-09T13:26:09;35.70;45.40
3069;DHT22;1545;51.728;8.796;2023-07-09T13:28:34;35.90;43.70
3069;DHT22;1545;51.728;8.796;2023-07-09T13:31:10;35.50;44.40
3069;DHT22;1545;51.728;8.796;2023-07-09T13:33:37;35.70;44.60
3069;DHT22;1545;51.728;8.796;2023-07-09T13:36:02;35.80;43.50
3069;DHT22;1545;51.728;8.796;2023-07-09T13:38:28;35.80;43.90
3069;DHT22;1545;51.728;8.796;2023-07-09T13:41:00;36.00;43.70
3069;DHT22;1545;51.728;8.796;2023-07-09T13:43:32;36.00;44.20
3069;DHT22;1545;51.728;8.796;2023-07-09T13:46:00;36.20;44.50
3069;DHT22;1545;51.728;8.796;2023-07-09T13:48:27;36.40;43.60
3069;DHT22;1545;51.728;8.796;2023-07-09T13:50:54;36.70;43.50
3069;DHT22;1545;51.728;8.796;2023-07-09T13:53:23;36.90;43.40
3069;DHT22;1545;51.728;8.796;2023-07-09T13:55:49;36.70;43.60
3069;DHT22;1545;51.728;8.796;2023-07-09T13:58:17;36.80;44.00
3069;DHT22;1545;51.728;8.796;2023-07-09T14:00:45;37.00;43.60
3069;DHT22;1545;51.728;8.796;2023-07-09T14:03:18;37.10;44.00
3069;DHT22;1545;51.728;8.796;2023-07-09T14:05:44;37.10;43.40
3069;DHT22;1545;51.728;8.796;2023-07-09T14:08:11;36.80;44.30
3069;DHT22;1545;51.728;8.796;2023-07-09T14:10:37;36.50;44.30
3069;DHT22;1545;51.728;8.796;2023-07-09T14:13:03;36.20;45.40
3069;DHT22;1545;51.728;8.796;2023-07-09T14:15:28;35.80;45.90
3069;DHT22;1545;51.728;8.796;2023-07-09T14:17:54;35.10;46.30
3069;DHT22;1545;51.728;8.796;2023-07-09T14:20:24;35.40;46.70
3069;DHT22;1545;51.728;8.796;2023-07-09T14:22:49;35.70;46.10
3069;DHT22;1545;51.728;8.796;2023-07-09T14:25:23;36.00;46.40
3069;DHT22;1545;51.728;8.796;2023-07-09T14:27:50;35.90;45.10
3069;DHT22;1545;51.728;8.796;2023-07-09T14:30:18;36.00;45.00
3069;DHT22;1545;51.728;8.796;2023-07-09T14:32:46;36.10;44.90
3069;DHT22;1545;51.728;8.796;2023-07-09T14:35:20;35.60;45.80
3069;DHT22;1545;51.728;8.796;2023-07-09T14:37:49;35.60;46.90
3069;DHT22;1545;51.728;8.796;2023-07-09T14:40:16;36.00;46.70
3069;DHT22;1545;51.728;8.796;2023-07-09T14:42:42;36.40;45.00
3069;DHT22;1545;51.728;8.796;2023-07-09T14:45:18;36.60;43.70
3069;DHT22;1545;51.728;8.796;2023-07-09T14:47:44;36.10;44.50
3069;DHT22;1545;51.728;8.796;2023-07-09T14:50:10;36.10;45.70
3069;DHT22;1545;51.728;8.796;2023-07-09T14:52:35;36.00;45.10
3069;DHT22;1545;51.728;8.796;2023-07-09T14:55:02;35.70;45.60
3069;DHT22;1545;51.728;8.796;2023-07-09T14:57:28;35.80;45.90
3069;DHT22;1545;51.728;8.796;2023-07-09T14:59:56;35.60;46.40
3069;DHT22;1545;51.728;8.796;2023-07-09T15:04:50;34.80;48.50
3069;DHT22;1545;51.728;8.796;2023-07-09T15:07:16;34.70;48.60
3069;DHT22;1545;51.728;8.796;2023-07-09T15:09:41;34.40;50.00
3069;DHT22;1545;51.728;8.796;2023-07-09T15:12:22;34.50;50.30
3069;DHT22;1545;51.728;8.796;2023-07-09T15:14:49;34.50;49.70
3069;DHT22;1545;51.728;8.796;2023-07-09T15:17:15;34.30;50.70
3069;DHT22;1545;51.728;8.796;2023-07-09T15:19:40;34.10;50.60
3069;DHT22;1545;51.728;8.796;2023-07-09T15:22:21;34.00;50.70
3069;DHT22;1545;51.728;8.796;2023-07-09T15:24:48;34.00;51.20
3069;DHT22;1545;51.728;8.796;2023-07-09T15:27:14;33.90;51.50
3069;DHT22;1545;51.728;8.796;2023-07-09T15:29:39;34.00;51.90
3069;DHT22;1545;51.728;8.796;2023-07-09T15:32:05;33.90;52.10
3069;DHT22;1545;51.728;8.796;2023-07-09T15:34:31;33.90;53.20
3069;DHT22;1545;51.728;8.796;2023-07-09T15:36:57;33.80;53.60
3069;DHT22;1545;51.728;8.796;2023-07-09T15:39:22;33.80;54.00
3069;DHT22;1545;51.728;8.796;2023-07-09T15:41:48;33.70;54.10
3069;DHT22;1545;51.728;8.796;2023-07-09T15:44:15;33.70;55.80
3069;DHT22;1545;51.728;8.796;2023-07-09T15:46:45;33.50;54.90
3069;DHT22;1545;51.728;8.796;2023-07-09T15:49:12;33.40;56.30
3069;DHT22;1545;51.728;8.796;2023-07-09T15:51:39;33.30;56.40
3069;DHT22;1545;51.728;8.796;2023-07-09T15:54:17;33.10;56.40
3069;DHT22;1545;51.728;8.796;2023-07-09T15:56:43;32.90;57.10
3069;DHT22;1545;51.728;8.796;2023-07-09T15:59:24;32.70;57.30
3069;DHT22;1545;51.728;8.796;2023-07-09T16:01:50;32.50;58.90
3069;DHT22;1545;51.728;8.796;2023-07-09T16:04:15;32.40;59.00
3069;DHT22;1545;51.728;8.796;2023-07-09T16:06:42;32.20;58.50
3069;DHT22;1545;51.728;8.796;2023-07-09T16:09:08;32.20;57.70
3069;DHT22;1545;51.728;8.796;2023-07-09T16:11:33;32.30;54.20
3069;DHT22;1545;51.728;8.796;2023-07-09T16:14:01;32.40;52.80
3069;DHT22;1545;51.728;8.796;2023-07-09T16:16:26;32.40;52.40
3069;DHT22;1545;51.728;8.796;2023-07-09T16:18:52;32.50;52.30
3069;DHT22;1545;51.728;8.796;2023-07-09T16:21:29;32.40;51.50
3069;DHT22;1545;51.728;8.796;2023-07-09T16:23:57;32.30;51.80
3069;DHT22;1545;51.728;8.796;2023-07-09T16:26:23;32.10;52.30
3069;DHT22;1545;51.728;8.796;2023-07-09T16:28:49;32.00;52.70
3069;DHT22;1545;51.728;8.796;2023-07-09T16:31:15;31.90;53.50
3069;DHT22;1545;51.728;8.796;2023-07-09T16:33:40;31.80;53.30
3069;DHT22;1545;51.728;8.796;2023-07-09T16:36:12;31.50;54.90
3069;DHT22;1545;51.728;8.796;2023-07-09T16:38:38;31.30;55.10
3069;DHT22;1545;51.728;8.796;2023-07-09T16:41:03;31.10;56.90
3069;DHT22;1545;51.728;8.796;2023-07-09T16:43:29;30.90;58.20
3069;DHT22;1545;51.728;8.796;2023-07-09T16:45:54;30.80;60.00